createdAt,value
2022-12-18T00:00:58.150Z,7.18
2022-12-18T00:03:29.557Z,5.82
2022-12-18T00:06:00.120Z,5.63
2022-12-18T00:08:31.185Z,6.78
2022-12-18T00:11:08.062Z,5.15
2022-12-18T00:13:38.991Z,6.18
2022-12-18T00:16:15.355Z,4.60
2022-12-18T00:18:46.633Z,6.28
2022-12-18T00:21:18.080Z,5.03
2022-12-18T00:23:50.020Z,7.10
2022-12-18T00:26:23.542Z,5.63
2022-12-18T00:28:57.996Z,7.47
2022-12-18T00:31:31.613Z,6.13
2022-12-18T00:34:02.955Z,7.25
2022-12-18T00:36:36.535Z,5.28
2022-12-18T00:39:09.251Z,4.70
2022-12-18T00:41:52.137Z,9.43
2022-12-18T00:44:23.499Z,5.30
2022-12-18T00:46:57.788Z,7.72
2022-12-18T00:49:28.707Z,5.65
2022-12-18T00:51:59.783Z,5.65
2022-12-18T00:54:30.476Z,5.07
2022-12-18T00:57:01.165Z,5.50
2022-12-18T00:59:31.681Z,5.55
2022-12-18T01:02:05.063Z,10.93
2022-12-18T01:04:35.829Z,10.32
2022-12-18T01:07:06.371Z,6.57
2022-12-18T01:09:38.774Z,8.95
2022-12-18T01:12:10.560Z,6.55
2022-12-18T01:14:41.943Z,6.28
2022-12-18T01:17:18.310Z,7.10
2022-12-18T01:19:49.486Z,7.50
2022-12-18T01:22:20.141Z,14.65
2022-12-18T01:24:50.587Z,8.48
2022-12-18T01:27:21.263Z,7.25
2022-12-18T01:29:51.744Z,10.45
2022-12-18T01:32:26.397Z,11.77
2022-12-18T01:34:56.869Z,11.25
2022-12-18T01:37:27.584Z,8.95
2022-12-18T01:39:58.326Z,10.60
2022-12-18T01:42:29.555Z,8.50
2022-12-18T01:45:03.871Z,10.73
2022-12-18T01:47:46.373Z,6.88
2022-12-18T01:50:20.560Z,10.73
2022-12-18T01:52:54.290Z,7.60
2022-12-18T01:55:28.039Z,7.65
2022-12-18T01:58:02.566Z,18.67
2022-12-18T02:00:33.522Z,8.50
2022-12-18T02:03:06.921Z,6.60
2022-12-18T02:05:47.908Z,9.77
2022-12-18T02:08:25.257Z,14.18
2022-12-18T02:13:40.598Z,9.57
2022-12-18T02:16:38.686Z,7.38
2022-12-18T02:19:24.626Z,8.25
2022-12-18T02:22:11.024Z,6.97
2022-12-18T02:24:49.313Z,6.93
2022-12-18T02:27:23.197Z,11.52
2022-12-18T02:29:58.788Z,7.28
2022-12-18T02:32:38.079Z,9.75
2022-12-18T02:35:11.562Z,9.82
2022-12-18T02:37:46.599Z,9.77
2022-12-18T02:40:19.725Z,19.73
2022-12-18T02:42:53.089Z,10.88
2022-12-18T02:45:24.580Z,10.52
2022-12-18T02:47:56.858Z,11.98
2022-12-18T02:50:35.058Z,13.52
2022-12-18T02:53:17.643Z,9.75
2022-12-18T02:56:01.616Z,10.93
2022-12-18T02:58:41.917Z,10.10
2022-12-18T03:01:28.833Z,10.98
2022-12-18T03:04:02.751Z,8.73
2022-12-18T03:06:36.226Z,8.68
2022-12-18T03:09:11.898Z,16.55
2022-12-18T03:12:01.098Z,11.82
2022-12-18T03:14:36.953Z,12.30
2022-12-18T03:17:10.086Z,13.38
2022-12-18T03:19:42.892Z,10.77
2022-12-18T03:22:15.065Z,11.30
2022-12-18T03:27:25.390Z,11.93
2022-12-18T03:30:08.638Z,10.98
2022-12-18T03:32:46.936Z,13.73
2022-12-18T03:35:22.600Z,10.90
2022-12-18T03:37:53.661Z,10.98
2022-12-18T03:40:31.565Z,11.00
2022-12-18T03:43:07.511Z,11.85
2022-12-18T03:45:46.064Z,11.05
2022-12-18T03:48:23.864Z,10.85
2022-12-18T03:51:00.254Z,12.98
2022-12-18T03:53:41.423Z,11.82
2022-12-18T03:56:14.173Z,15.82
2022-12-18T03:58:48.981Z,13.35
2022-12-18T04:01:30.659Z,13.65
2022-12-18T04:04:04.359Z,9.50
2022-12-18T04:06:39.355Z,13.93
2022-12-18T04:09:10.123Z,15.85
2022-12-18T04:11:44.977Z,10.02
2022-12-18T04:14:18.451Z,11.02
2022-12-18T04:16:55.523Z,16.45
2022-12-18T04:19:33.322Z,14.63
2022-12-18T04:22:05.673Z,13.68
2022-12-18T04:24:43.693Z,13.30
2022-12-18T04:27:21.636Z,16.00
2022-12-18T04:29:54.441Z,16.25
2022-12-18T04:32:27.734Z,15.88
2022-12-18T04:34:58.177Z,14.50
2022-12-18T04:37:29.124Z,13.90
2022-12-18T04:39:59.979Z,14.73
2022-12-18T04:42:38.098Z,15.13
2022-12-18T04:45:09.801Z,13.50
2022-12-18T04:47:42.898Z,13.93
2022-12-18T04:50:13.921Z,15.32
2022-12-18T04:52:44.337Z,17.73
2022-12-18T04:55:17.561Z,17.02
2022-12-18T04:57:48.056Z,14.48
2022-12-18T05:00:19.448Z,14.48
2022-12-18T05:02:52.903Z,17.23
2022-12-18T05:05:23.679Z,17.52
2022-12-18T05:07:54.233Z,17.58
2022-12-18T05:10:24.886Z,18.27
2022-12-18T05:13:04.032Z,16.45
2022-12-18T05:15:36.264Z,21.83
2022-12-18T05:18:09.496Z,19.40
2022-12-18T05:20:40.127Z,20.02
2022-12-18T05:23:10.588Z,18.67
2022-12-18T05:25:41.608Z,20.52
2022-12-18T05:28:12.177Z,17.83
2022-12-18T05:30:42.759Z,20.23
2022-12-18T05:33:15.936Z,19.92
2022-12-18T05:35:46.585Z,20.23
2022-12-18T05:38:16.986Z,23.60
2022-12-18T05:40:47.806Z,18.73
2022-12-18T05:43:21.445Z,17.70
2022-12-18T05:45:52.944Z,18.33
2022-12-18T05:48:26.218Z,18.58
2022-12-18T05:50:56.911Z,17.67
2022-12-18T05:53:27.299Z,19.85
2022-12-18T05:55:57.998Z,19.75
2022-12-18T05:58:28.529Z,18.52
2022-12-18T06:00:59.300Z,17.42
2022-12-18T06:03:34.162Z,16.83
2022-12-18T06:06:04.899Z,18.83
2022-12-18T06:08:35.413Z,19.13
2022-12-18T06:11:06.077Z,18.08
2022-12-18T06:13:36.696Z,18.48
2022-12-18T06:16:08.382Z,15.85
2022-12-18T06:18:41.561Z,19.45
2022-12-18T06:21:12.188Z,17.02
2022-12-18T06:23:43.284Z,18.17
2022-12-18T06:26:16.284Z,20.40
2022-12-18T06:28:46.858Z,17.70
2022-12-18T06:31:17.531Z,17.02
2022-12-18T06:33:51.859Z,18.85
2022-12-18T06:36:22.581Z,19.45
2022-12-18T06:38:53.237Z,17.17
2022-12-18T06:41:25.311Z,18.52
2022-12-18T06:43:59.738Z,19.23
2022-12-18T06:46:30.708Z,18.77
2022-12-18T06:49:03.789Z,22.45
2022-12-18T06:51:34.628Z,21.50
2022-12-18T06:54:05.300Z,16.23
2022-12-18T06:56:35.879Z,17.35
2022-12-18T06:59:07.121Z,17.92
2022-12-18T07:01:37.831Z,19.40
2022-12-18T07:04:11.948Z,17.55
2022-12-18T07:06:42.525Z,17.55
2022-12-18T07:09:12.964Z,16.40
2022-12-18T07:11:43.519Z,15.85
2022-12-18T07:14:14.435Z,15.63
2022-12-18T07:16:45.110Z,19.17
2022-12-18T07:19:18.285Z,18.45
2022-12-18T07:21:48.906Z,17.83
2022-12-18T07:24:19.598Z,19.95
2022-12-18T07:26:52.276Z,18.45
2022-12-18T07:29:22.764Z,23.92
2022-12-18T07:31:53.377Z,21.55
2022-12-18T07:34:26.504Z,19.17
2022-12-18T07:36:57.054Z,23.42
2022-12-18T07:39:27.524Z,22.40
2022-12-18T07:42:10.294Z,24.70
2022-12-18T07:44:44.332Z,21.58
2022-12-18T07:47:14.929Z,19.85
2022-12-18T07:49:48.136Z,20.05
2022-12-18T07:52:24.227Z,18.73
2022-12-18T07:54:56.915Z,32.38
2022-12-18T07:57:49.546Z,24.33
2022-12-18T08:00:19.364Z,21.38
2022-12-18T08:02:50.360Z,20.27
2022-12-18T08:05:24.129Z,18.55
2022-12-18T08:07:54.686Z,19.20
2022-12-18T08:10:25.439Z,19.90
2022-12-18T08:13:01.408Z,27.40
2022-12-18T08:15:35.065Z,18.83
2022-12-18T08:18:09.028Z,18.20
2022-12-18T08:20:47.385Z,28.55
2022-12-18T08:23:17.983Z,16.45
2022-12-18T08:25:48.560Z,19.48
2022-12-18T08:28:19.237Z,27.15
2022-12-18T08:30:49.782Z,31.17
2022-12-18T08:33:20.526Z,22.13
2022-12-18T08:35:53.670Z,20.00
2022-12-18T08:38:24.481Z,22.38
2022-12-18T08:41:02.439Z,40.10
2022-12-18T08:43:45.619Z,18.60
2022-12-18T08:46:16.556Z,23.58
2022-12-18T08:48:47.671Z,32.42
2022-12-18T08:51:21.163Z,16.85
2022-12-18T08:53:52.007Z,21.45
2022-12-18T08:56:22.524Z,15.18
2022-12-18T08:58:56.177Z,19.95
2022-12-18T09:01:27.406Z,19.15
2022-12-18T09:03:58.107Z,16.17
2022-12-18T09:06:31.222Z,19.83
2022-12-18T09:09:01.845Z,15.02
2022-12-18T09:11:34.035Z,13.55
2022-12-18T09:14:05.696Z,13.00
2022-12-18T09:16:37.980Z,15.57
2022-12-18T09:19:09.316Z,12.32
2022-12-18T09:21:47.729Z,16.08
2022-12-18T09:24:19.574Z,11.20
2022-12-18T09:26:54.804Z,13.52
2022-12-18T09:29:28.560Z,11.18
2022-12-18T09:31:59.050Z,18.63
2022-12-18T09:34:29.783Z,11.73
2022-12-18T09:37:03.367Z,16.60
2022-12-18T09:39:34.013Z,12.55
2022-12-18T09:42:04.775Z,15.18
2022-12-18T09:44:45.074Z,13.85
2022-12-18T09:47:21.275Z,13.40
2022-12-18T09:49:56.864Z,14.95
2022-12-18T09:55:06.177Z,22.45
2022-12-18T09:57:41.062Z,15.80
2022-12-18T10:00:21.555Z,17.83
2022-12-18T10:02:52.922Z,15.50
2022-12-18T10:05:33.286Z,21.40
2022-12-18T10:08:12.660Z,17.83
2022-12-18T10:10:50.905Z,31.25
2022-12-18T10:13:29.521Z,16.65
2022-12-18T10:16:13.664Z,20.88
2022-12-18T10:19:02.607Z,12.65
2022-12-18T10:21:38.154Z,12.98
2022-12-18T10:26:46.146Z,14.48
2022-12-18T10:29:18.833Z,12.82
2022-12-18T10:31:49.599Z,13.80
2022-12-18T10:34:20.091Z,14.68
2022-12-18T10:36:52.077Z,14.13
2022-12-18T10:39:27.514Z,15.15
2022-12-18T10:42:14.753Z,11.82
2022-12-18T10:44:45.310Z,12.50
2022-12-18T10:47:18.820Z,10.18
2022-12-18T10:49:53.932Z,12.07
2022-12-18T10:52:26.974Z,13.77
2022-12-18T10:55:02.957Z,9.52
2022-12-18T10:57:39.908Z,11.75
2022-12-18T11:00:28.949Z,26.98
2022-12-18T11:03:00.693Z,13.95
2022-12-18T11:05:34.249Z,11.68
2022-12-18T11:08:05.657Z,10.05
2022-12-18T11:10:42.112Z,12.73
2022-12-18T11:13:20.950Z,13.05
2022-12-18T11:15:52.184Z,19.80
2022-12-18T11:18:29.005Z,8.18
2022-12-18T11:21:01.679Z,14.90
2022-12-18T11:23:32.428Z,9.65
2022-12-18T11:26:08.108Z,12.07
2022-12-18T11:28:42.352Z,9.70
2022-12-18T11:31:32.517Z,11.83
2022-12-18T11:36:58.677Z,8.07
2022-12-18T11:39:37.683Z,9.82
2022-12-18T11:42:16.813Z,19.70
2022-12-18T11:44:52.833Z,10.73
2022-12-18T11:47:31.477Z,12.93
2022-12-18T11:50:05.439Z,8.60
2022-12-18T11:52:42.820Z,10.57
2022-12-18T11:55:17.310Z,15.43
2022-12-18T11:58:01.065Z,9.98
2022-12-18T12:00:31.600Z,11.32
2022-12-18T12:03:25.254Z,13.52
2022-12-18T12:06:05.845Z,9.65
2022-12-18T12:08:48.403Z,11.65
2022-12-18T12:11:29.603Z,15.23
2022-12-18T12:14:16.636Z,9.68
2022-12-18T12:16:54.737Z,8.75
2022-12-18T12:19:38.315Z,10.57
2022-12-18T12:22:16.362Z,8.77
2022-12-18T12:24:59.427Z,8.43
2022-12-18T12:27:36.940Z,8.98
2022-12-18T12:30:13.898Z,8.45
2022-12-18T12:33:13.335Z,22.70
2022-12-18T12:35:56.177Z,15.02
2022-12-18T12:38:31.408Z,11.93
2022-12-18T12:41:05.010Z,9.50
2022-12-18T12:43:46.026Z,12.32
2022-12-18T12:46:25.841Z,14.55
2022-12-18T12:48:59.604Z,14.27
2022-12-18T12:51:32.495Z,12.73
2022-12-18T12:54:05.446Z,12.00
2022-12-18T12:56:44.052Z,15.48
2022-12-18T12:59:20.408Z,12.43
2022-12-18T13:02:02.464Z,12.27
2022-12-18T13:04:41.172Z,12.23
2022-12-18T13:07:20.519Z,12.57
2022-12-18T13:10:20.912Z,13.00
2022-12-18T13:12:57.783Z,22.23
2022-12-18T13:15:36.743Z,11.23
2022-12-18T13:18:19.307Z,19.67
2022-12-18T13:20:55.261Z,14.60
2022-12-18T13:23:46.708Z,15.52
2022-12-18T13:26:37.107Z,17.50
2022-12-18T13:29:08.236Z,17.45
2022-12-18T13:32:03.034Z,19.65
2022-12-18T13:34:36.751Z,19.85
2022-12-18T13:37:44.902Z,20.48
2022-12-18T13:40:56.883Z,18.20
2022-12-18T13:43:32.547Z,17.35
2022-12-18T13:46:28.155Z,18.15
2022-12-18T13:49:04.176Z,14.20
2022-12-18T13:51:39.180Z,30.42
2022-12-18T13:54:22.342Z,30.75
2022-12-18T13:56:53.577Z,20.83
2022-12-18T13:59:25.689Z,24.38
2022-12-18T14:01:59.119Z,22.92
2022-12-18T14:04:31.690Z,15.15
2022-12-18T14:07:08.800Z,13.52
2022-12-18T14:09:47.260Z,15.98
2022-12-18T14:12:33.656Z,15.80
2022-12-18T14:15:04.602Z,15.00
2022-12-18T14:17:36.375Z,21.67
2022-12-18T14:20:08.045Z,24.67
2022-12-18T14:22:41.131Z,17.95
2022-12-18T14:25:23.396Z,13.88
2022-12-18T14:27:56.547Z,12.45
2022-12-18T14:30:31.629Z,12.77
2022-12-18T14:33:09.790Z,15.35
2022-12-18T14:35:42.629Z,12.05
2022-12-18T14:38:26.372Z,9.18
2022-12-18T14:41:01.135Z,13.68
2022-12-18T14:43:33.415Z,11.80
2022-12-18T14:46:05.190Z,13.98
2022-12-18T14:48:43.731Z,18.50
2022-12-18T14:51:21.867Z,12.27
2022-12-18T14:53:59.330Z,13.38
2022-12-18T14:56:31.814Z,18.98
2022-12-18T14:59:04.628Z,19.95
2022-12-18T15:01:39.239Z,17.60
2022-12-18T15:04:29.298Z,27.88
2022-12-18T15:07:14.196Z,23.60
2022-12-18T15:09:48.177Z,12.52
2022-12-18T15:12:32.538Z,9.23
2022-12-18T15:15:03.188Z,18.00
2022-12-18T15:17:35.300Z,17.23
2022-12-18T15:20:13.992Z,12.98
2022-12-18T15:22:44.475Z,15.15
2022-12-18T15:25:37.749Z,16.13
2022-12-18T15:28:20.047Z,11.35
2022-12-18T15:31:06.815Z,10.77
2022-12-18T15:33:39.966Z,14.00
2022-12-18T15:36:14.137Z,11.30
2022-12-18T15:38:45.122Z,16.02
2022-12-18T15:41:24.318Z,12.00
2022-12-18T15:43:54.616Z,14.57
2022-12-18T15:46:28.109Z,16.17
2022-12-18T15:49:02.732Z,14.60
2022-12-18T15:51:37.333Z,9.20
2022-12-18T15:54:14.266Z,9.07
2022-12-18T15:56:59.697Z,10.45
2022-12-18T15:59:30.506Z,12.98
2022-12-18T16:02:01.463Z,13.77
2022-12-18T16:04:33.231Z,13.52
2022-12-18T16:07:14.759Z,12.82
2022-12-18T16:09:45.980Z,11.63
2022-12-18T16:12:24.943Z,10.27
2022-12-18T16:14:55.464Z,13.57
2022-12-18T16:17:25.900Z,10.52
2022-12-18T16:19:56.655Z,15.77
2022-12-18T16:22:29.081Z,13.07
2022-12-18T16:25:01.202Z,12.23
2022-12-18T16:27:35.946Z,14.10
2022-12-18T16:30:10.119Z,16.98
2022-12-18T16:32:40.602Z,20.05
2022-12-18T16:35:14.245Z,13.07
2022-12-18T16:37:46.521Z,19.33
2022-12-18T16:40:19.026Z,13.75
2022-12-18T16:42:52.375Z,15.88
2022-12-18T16:45:23.108Z,22.08
2022-12-18T16:47:53.613Z,16.48
2022-12-18T16:50:24.135Z,17.13
2022-12-18T16:52:54.633Z,20.92
2022-12-18T16:55:25.287Z,22.13
2022-12-18T16:57:58.377Z,21.15
2022-12-18T17:00:29.004Z,22.13
2022-12-18T17:02:59.832Z,19.38
2022-12-18T17:05:30.567Z,23.10
2022-12-18T17:08:01.612Z,21.83
2022-12-18T17:10:32.963Z,20.33
2022-12-18T17:13:06.066Z,20.50
2022-12-18T17:15:38.873Z,18.23
2022-12-18T17:18:10.118Z,19.50
2022-12-18T17:20:40.784Z,24.58
2022-12-18T17:23:11.350Z,22.70
2022-12-18T17:25:43.900Z,24.02
2022-12-18T17:28:17.145Z,23.45
2022-12-18T17:30:47.861Z,20.05
2022-12-18T17:33:18.731Z,21.15
2022-12-18T17:35:49.433Z,31.42
2022-12-18T17:38:20.457Z,18.60
2022-12-18T17:40:50.959Z,20.02
2022-12-18T17:43:24.317Z,28.20
2022-12-18T17:45:54.987Z,17.85
2022-12-18T17:48:27.124Z,21.27
2022-12-18T17:50:58.263Z,16.40
2022-12-18T17:53:30.655Z,18.38
2022-12-18T17:56:05.902Z,18.27
2022-12-18T17:58:40.956Z,18.85
2022-12-18T18:01:17.637Z,19.23
2022-12-18T18:03:49.936Z,15.40
2022-12-18T18:06:24.214Z,16.23
2022-12-18T18:08:55.141Z,16.63
2022-12-18T18:11:40.446Z,17.60
2022-12-18T18:14:17.774Z,18.48
2022-12-18T18:16:50.334Z,23.15
2022-12-18T18:19:22.972Z,19.40
2022-12-18T18:21:55.715Z,16.40
2022-12-18T18:24:27.142Z,17.40
2022-12-18T18:26:59.752Z,22.05
2022-12-18T18:29:33.558Z,16.90
2022-12-18T18:32:04.815Z,18.67
2022-12-18T18:34:36.584Z,22.83
2022-12-18T18:37:07.279Z,18.30
2022-12-18T18:39:38.046Z,22.95
2022-12-18T18:42:08.956Z,19.95
2022-12-18T18:44:45.860Z,22.90
2022-12-18T18:47:19.489Z,25.50
2022-12-18T18:49:52.217Z,29.63
2022-12-18T18:52:22.649Z,30.75
2022-12-18T18:55:12.302Z,22.70
2022-12-18T18:57:43.586Z,20.70
2022-12-18T19:00:18.639Z,21.88
2022-12-18T19:02:49.390Z,22.55
2022-12-18T19:05:22.440Z,22.13
2022-12-18T19:07:52.874Z,20.67
2022-12-18T19:10:23.531Z,20.48
2022-12-18T19:13:06.523Z,18.88
2022-12-18T19:15:40.100Z,22.58
2022-12-18T19:18:10.653Z,23.30
2022-12-18T19:20:41.641Z,24.35
2022-12-18T19:23:12.211Z,23.83
2022-12-18T19:25:43.186Z,21.15
2022-12-18T19:28:22.166Z,22.40
2022-12-18T19:31:01.981Z,22.42
2022-12-18T19:33:43.189Z,23.42
2022-12-18T19:36:17.159Z,20.10
2022-12-18T19:38:48.145Z,20.00
2022-12-18T19:41:20.068Z,24.42
2022-12-18T19:43:51.915Z,22.98
2022-12-18T19:46:26.433Z,21.38
2022-12-18T19:48:57.045Z,25.77
2022-12-18T19:51:29.918Z,22.45
2022-12-18T19:54:02.188Z,23.25
2022-12-18T19:56:34.470Z,20.15
2022-12-18T19:59:06.452Z,17.15
2022-12-18T20:01:39.763Z,23.38
2022-12-18T20:04:10.496Z,19.90
2022-12-18T20:06:50.779Z,18.95
2022-12-18T20:09:22.036Z,23.17
2022-12-18T20:11:53.433Z,24.23
2022-12-18T20:14:24.395Z,21.60
2022-12-18T20:16:58.020Z,21.63
2022-12-18T20:19:31.907Z,22.65
2022-12-18T20:22:05.055Z,25.05
2022-12-18T20:24:35.755Z,22.17
2022-12-18T20:27:09.846Z,19.17
2022-12-18T20:29:45.161Z,21.27
2022-12-18T20:32:18.547Z,23.30
2022-12-18T20:34:49.053Z,25.88
2022-12-18T20:37:20.436Z,21.77
2022-12-18T20:39:52.102Z,22.70
2022-12-18T20:42:23.795Z,19.38
2022-12-18T20:44:54.278Z,23.15
2022-12-18T20:47:27.417Z,20.13
2022-12-18T20:49:57.962Z,21.63
2022-12-18T20:52:28.613Z,21.02
2022-12-18T20:54:59.136Z,20.65
2022-12-18T20:57:31.412Z,21.23
2022-12-18T21:00:01.830Z,22.08
2022-12-18T21:02:38.818Z,22.40
2022-12-18T21:05:10.360Z,23.35
2022-12-18T21:07:40.941Z,24.45
2022-12-18T21:10:12.596Z,22.20
2022-12-18T21:12:58.711Z,22.70
2022-12-18T21:15:32.326Z,23.52
2022-12-18T21:18:05.466Z,22.15
2022-12-18T21:20:35.957Z,26.00
2022-12-18T21:23:16.571Z,25.67
2022-12-18T21:25:49.807Z,25.73
2022-12-18T21:28:26.078Z,27.27
2022-12-18T21:30:56.671Z,25.80
2022-12-18T21:33:29.904Z,23.75
2022-12-18T21:36:00.497Z,23.50
2022-12-18T21:38:31.371Z,25.48
2022-12-18T21:41:02.072Z,22.23
2022-12-18T21:43:45.041Z,23.92
2022-12-18T21:46:15.664Z,24.58
2022-12-18T21:48:49.038Z,23.02
2022-12-18T21:51:19.473Z,25.55
2022-12-18T21:53:50.062Z,22.27
2022-12-18T21:56:20.683Z,26.52
2022-12-18T21:58:56.910Z,27.33
2022-12-18T22:01:30.544Z,24.45
2022-12-18T22:04:10.645Z,28.33
2022-12-18T22:06:41.638Z,27.85
2022-12-18T22:09:13.283Z,32.00
2022-12-18T22:11:43.942Z,31.83
2022-12-18T22:14:15.161Z,29.42
2022-12-18T22:16:46.389Z,35.58
2022-12-18T22:19:20.594Z,29.92
2022-12-18T22:21:52.235Z,28.20
2022-12-18T22:24:24.571Z,29.40
2022-12-18T22:27:00.034Z,30.25
2022-12-18T22:29:45.024Z,30.10
2022-12-18T22:32:22.101Z,27.63
2022-12-18T22:35:12.674Z,27.50
2022-12-18T22:37:46.044Z,27.05
2022-12-18T22:40:24.672Z,26.85
2022-12-18T22:42:56.728Z,29.13
2022-12-18T22:45:28.089Z,29.02
2022-12-18T22:47:59.171Z,30.20
2022-12-18T22:50:33.977Z,27.35
2022-12-18T22:53:04.630Z,29.27
2022-12-18T22:55:35.139Z,27.55
2022-12-18T22:58:05.737Z,30.30
2022-12-18T23:00:36.292Z,29.52
2022-12-18T23:03:07.434Z,28.17
2022-12-18T23:05:40.650Z,31.50
2022-12-18T23:08:11.298Z,33.72
2022-12-18T23:10:41.914Z,30.45
2022-12-18T23:13:12.847Z,28.83
2022-12-18T23:15:44.982Z,32.63
2022-12-18T23:18:15.747Z,30.90
2022-12-18T23:20:48.892Z,27.90
2022-12-18T23:23:21.708Z,30.85
2022-12-18T23:25:52.518Z,36.08
2022-12-18T23:28:23.137Z,32.15
2022-12-18T23:30:53.737Z,34.22
2022-12-18T23:33:24.407Z,30.65
2022-12-18T23:36:01.471Z,31.02
2022-12-18T23:38:32.332Z,33.08
2022-12-18T23:41:03.170Z,32.67
2022-12-18T23:43:33.728Z,35.40
2022-12-18T23:46:06.075Z,34.53
2022-12-18T23:48:36.824Z,33.00
2022-12-18T23:51:11.831Z,33.45
2022-12-18T23:53:42.986Z,28.88
2022-12-18T23:56:15.105Z,33.50
2022-12-18T23:58:46.208Z,30.50
